METAR Data
IDs: Format: Raw Decoded Include TAF

Data at: 1600 UTC 16 Feb 2019

METAR for:KLHQ (Lancaster/Fairfield, OH, US)
Text:KLHQ 161553Z AUTO 02011KT 10SM OVC020 M03/M08 A3005 RMK AO2 SLP186 T10331078
Temperature: -3.3°C ( 26°F)
Dewpoint: -7.8°C ( 18°F) [RH = 71%]
Pressure (altimeter):30.05 inches Hg (1017.7 mb) [Sea level pressure: 1018.6 mb]
Winds:from the NNE (20 degrees) at 13 MPH (11 knots; 5.7 m/s)
Visibility:10 or more sm (16+ km)
Ceiling:2000 feet AGL
Clouds: overcast cloud deck at 2000 feet AGL
QC Flag:automated observation with no human augmentation